createdAt,value
2023-02-06T00:01:47.963Z,7.10
2023-02-06T00:04:14.860Z,7.10
2023-02-06T00:06:42.607Z,7.10
2023-02-06T00:09:09.937Z,7.10
2023-02-06T00:11:36.630Z,7.00
2023-02-06T00:14:03.810Z,7.00
2023-02-06T00:16:32.627Z,7.10
2023-02-06T00:19:00.039Z,7.10
2023-02-06T00:21:28.604Z,7.10
2023-02-06T00:23:57.818Z,7.00
2023-02-06T00:26:25.391Z,7.00
2023-02-06T00:28:52.356Z,7.10
2023-02-06T00:31:19.210Z,7.00
2023-02-06T00:33:45.929Z,7.00
2023-02-06T00:36:12.648Z,7.00
2023-02-06T00:38:39.703Z,7.00
2023-02-06T00:41:06.973Z,7.10
2023-02-06T00:43:34.158Z,7.00
2023-02-06T00:46:02.422Z,7.10
2023-02-06T00:48:30.296Z,7.10
2023-02-06T00:50:56.928Z,7.00
2023-02-06T00:53:23.646Z,7.00
2023-02-06T00:55:50.384Z,7.00
2023-02-06T00:58:19.707Z,7.00
2023-02-06T01:00:46.353Z,7.00
2023-02-06T01:03:13.177Z,7.00
2023-02-06T01:05:40.010Z,7.10
2023-02-06T01:08:06.731Z,7.00
2023-02-06T01:10:33.874Z,7.00
2023-02-06T01:13:00.869Z,7.00
2023-02-06T01:15:27.792Z,7.00
2023-02-06T01:17:54.537Z,7.00
2023-02-06T01:20:22.899Z,7.00
2023-02-06T01:22:49.556Z,7.00
2023-02-06T01:25:16.316Z,7.00
2023-02-06T01:27:43.055Z,7.00
2023-02-06T01:30:11.054Z,7.00
2023-02-06T01:32:39.778Z,7.00
2023-02-06T01:35:08.524Z,7.00
2023-02-06T01:37:36.059Z,7.00
2023-02-06T01:40:03.707Z,7.00
2023-02-06T01:42:30.426Z,7.00
2023-02-06T01:45:28.416Z,7.00
2023-02-06T01:48:03.056Z,7.00
2023-02-06T01:50:32.150Z,7.00
2023-02-06T01:52:59.052Z,7.00
2023-02-06T01:55:26.033Z,7.00
2023-02-06T01:57:52.824Z,7.00
2023-02-06T02:00:20.054Z,7.00
2023-02-06T02:02:51.056Z,6.90
2023-02-06T02:05:19.391Z,6.90
2023-02-06T02:08:01.969Z,6.90
2023-02-06T02:10:30.444Z,6.90
2023-02-06T02:12:57.339Z,7.00
2023-02-06T02:15:39.976Z,7.00
2023-02-06T02:18:19.474Z,7.00
2023-02-06T02:21:11.855Z,6.90
2023-02-06T02:23:55.618Z,7.00
2023-02-06T02:26:54.753Z,6.90
2023-02-06T02:29:49.033Z,6.90
2023-02-06T02:32:30.911Z,6.90
2023-02-06T02:35:07.508Z,6.90
2023-02-06T02:38:05.251Z,6.90
2023-02-06T02:40:55.389Z,6.90
2023-02-06T02:43:50.147Z,6.90
2023-02-06T02:46:40.867Z,6.90
2023-02-06T02:49:21.064Z,6.90
2023-02-06T02:51:49.216Z,6.90
2023-02-06T02:54:15.954Z,6.90
2023-02-06T02:56:42.859Z,6.90
2023-02-06T02:59:26.730Z,6.90
2023-02-06T03:02:03.596Z,6.90
2023-02-06T03:04:45.998Z,6.90
2023-02-06T03:07:35.747Z,6.80
2023-02-06T03:10:21.421Z,6.90
2023-02-06T03:13:22.070Z,6.80
2023-02-06T03:15:57.553Z,6.80
2023-02-06T03:18:35.065Z,6.80
2023-02-06T03:21:05.542Z,6.70
2023-02-06T03:23:38.006Z,6.70
2023-02-06T03:26:22.409Z,6.70
2023-02-06T03:28:53.803Z,6.70
2023-02-06T03:31:30.767Z,6.70
2023-02-06T03:34:29.416Z,6.60
2023-02-06T03:36:56.409Z,6.60
2023-02-06T03:39:23.530Z,6.60
2023-02-06T03:41:53.375Z,6.60
2023-02-06T03:44:26.276Z,6.60
2023-02-06T03:46:55.023Z,6.50
2023-02-06T03:49:25.405Z,6.50
2023-02-06T03:52:04.133Z,6.50
2023-02-06T03:54:32.317Z,6.50
2023-02-06T03:57:02.738Z,6.50
2023-02-06T03:59:31.345Z,6.50
2023-02-06T04:02:00.986Z,6.40
2023-02-06T04:04:37.648Z,6.40
2023-02-06T04:07:15.654Z,6.40
2023-02-06T04:09:42.365Z,6.40
2023-02-06T04:12:09.635Z,6.40
2023-02-06T04:14:36.890Z,6.40
2023-02-06T04:17:04.676Z,6.40
2023-02-06T04:19:31.758Z,6.40
2023-02-06T04:21:58.716Z,6.30
2023-02-06T04:24:25.432Z,6.30
2023-02-06T04:26:52.240Z,6.30
2023-02-06T04:29:18.931Z,6.30
2023-02-06T04:31:45.664Z,6.30
2023-02-06T04:34:12.497Z,6.20
2023-02-06T04:36:39.472Z,6.20
2023-02-06T04:39:07.209Z,6.20
2023-02-06T04:41:34.261Z,6.20
2023-02-06T04:44:00.937Z,6.20
2023-02-06T04:46:27.728Z,6.20
2023-02-06T04:48:54.385Z,6.20
2023-02-06T04:51:21.094Z,6.20
2023-02-06T04:53:47.692Z,6.20
2023-02-06T04:56:14.360Z,6.20
2023-02-06T04:58:41.248Z,6.20
2023-02-06T05:01:07.954Z,6.10
2023-02-06T05:03:34.632Z,6.10
2023-02-06T05:06:02.780Z,6.10
2023-02-06T05:08:29.977Z,6.10
2023-02-06T05:10:57.475Z,6.10
2023-02-06T05:13:24.329Z,6.10
2023-02-06T05:15:51.072Z,6.10
2023-02-06T05:18:18.294Z,6.00
2023-02-06T05:20:45.651Z,6.10
2023-02-06T05:23:12.386Z,6.00
2023-02-06T05:25:41.304Z,6.00
2023-02-06T05:28:08.848Z,6.00
2023-02-06T05:30:36.248Z,6.00
2023-02-06T05:33:03.082Z,6.00
2023-02-06T05:35:29.907Z,5.90
2023-02-06T05:37:57.909Z,5.90
2023-02-06T05:40:25.186Z,6.00
2023-02-06T05:42:51.857Z,5.90
2023-02-06T05:45:18.588Z,5.90
2023-02-06T05:47:45.240Z,5.90
2023-02-06T05:50:11.940Z,5.90
2023-02-06T05:52:38.637Z,5.90
2023-02-06T05:55:05.845Z,5.90
2023-02-06T05:57:32.617Z,5.90
2023-02-06T05:59:59.405Z,5.90
2023-02-06T06:02:26.162Z,5.90
2023-02-06T06:04:52.854Z,5.90
2023-02-06T06:07:19.569Z,5.90
2023-02-06T06:09:46.219Z,5.80
2023-02-06T06:12:15.612Z,5.80
2023-02-06T06:14:42.326Z,5.80
2023-02-06T06:17:09.198Z,5.90
2023-02-06T06:19:36.144Z,5.80
2023-02-06T06:22:02.957Z,5.80
2023-02-06T06:24:29.703Z,5.80
2023-02-06T06:26:56.381Z,5.80
2023-02-06T06:29:23.068Z,5.80
2023-02-06T06:31:50.326Z,5.80
2023-02-06T06:34:17.206Z,5.80
2023-02-06T06:36:44.035Z,5.80
2023-02-06T06:39:10.962Z,5.80
2023-02-06T06:41:49.571Z,5.80
2023-02-06T06:44:16.259Z,5.80
2023-02-06T06:46:43.008Z,5.80
2023-02-06T06:49:09.729Z,5.80
2023-02-06T06:51:36.488Z,5.80
2023-02-06T06:54:03.143Z,5.80
2023-02-06T06:56:29.818Z,5.80
2023-02-06T06:58:56.548Z,5.80
2023-02-06T07:01:23.330Z,5.80
2023-02-06T07:03:50.082Z,5.80
2023-02-06T07:06:17.580Z,5.80
2023-02-06T07:08:46.867Z,5.80
2023-02-06T07:11:15.062Z,5.80
2023-02-06T07:13:42.625Z,5.80
2023-02-06T07:16:09.675Z,5.80
2023-02-06T07:18:36.387Z,5.80
2023-02-06T07:21:04.152Z,5.80
2023-02-06T07:23:31.112Z,5.80
2023-02-06T07:26:02.209Z,5.80
2023-02-06T07:28:29.754Z,5.70
2023-02-06T07:31:03.728Z,5.70
2023-02-06T07:33:30.965Z,5.70
2023-02-06T07:35:58.356Z,5.70
2023-02-06T07:38:25.447Z,5.70
2023-02-06T07:40:52.218Z,5.70
2023-02-06T07:43:19.006Z,5.70
2023-02-06T07:45:45.794Z,5.70
2023-02-06T07:48:12.533Z,5.70
2023-02-06T07:50:39.399Z,5.70
2023-02-06T07:53:06.287Z,5.70
2023-02-06T07:55:35.097Z,5.70
2023-02-06T07:58:02.112Z,5.60
2023-02-06T08:00:28.914Z,5.70
2023-02-06T08:02:55.535Z,5.70
2023-02-06T08:05:22.184Z,5.70
2023-02-06T08:07:51.264Z,5.60
2023-02-06T08:10:18.039Z,5.60
2023-02-06T08:12:45.022Z,5.60
2023-02-06T08:15:11.716Z,5.60
2023-02-06T08:17:38.355Z,5.60
2023-02-06T08:20:05.219Z,5.60
2023-02-06T08:22:32.111Z,5.60
2023-02-06T08:24:58.774Z,5.60
2023-02-06T08:27:25.487Z,5.60
2023-02-06T08:29:52.287Z,5.60
2023-02-06T08:32:19.245Z,5.60
2023-02-06T08:34:45.925Z,5.60
2023-02-06T08:37:12.973Z,5.60
2023-02-06T08:39:39.799Z,5.60
2023-02-06T08:42:06.560Z,5.60
2023-02-06T08:44:33.311Z,5.60
2023-02-06T08:47:09.607Z,5.60
2023-02-06T08:49:37.322Z,5.60
2023-02-06T08:52:04.106Z,5.60
2023-02-06T08:54:32.237Z,5.60
2023-02-06T08:57:01.124Z,5.60
2023-02-06T08:59:30.937Z,5.60
2023-02-06T09:01:57.622Z,5.60
2023-02-06T09:04:24.453Z,5.60
2023-02-06T09:06:52.172Z,5.60
2023-02-06T09:09:19.232Z,5.70
2023-02-06T09:11:46.063Z,5.60
2023-02-06T09:14:16.066Z,5.70
2023-02-06T09:16:43.354Z,5.70
2023-02-06T09:19:11.382Z,5.70
2023-02-06T09:21:38.161Z,5.70
2023-02-06T09:24:07.551Z,5.70
2023-02-06T09:26:40.559Z,5.70
2023-02-06T09:29:12.349Z,5.70
2023-02-06T09:31:41.396Z,5.70
2023-02-06T09:34:09.312Z,5.70
2023-02-06T09:36:37.502Z,5.80
2023-02-06T09:39:06.947Z,5.80
2023-02-06T09:41:55.182Z,5.80
2023-02-06T09:44:27.635Z,5.90
2023-02-06T09:47:25.039Z,5.90
2023-02-06T09:50:07.840Z,5.90
2023-02-06T09:53:03.226Z,5.90
2023-02-06T09:55:36.733Z,5.90
2023-02-06T09:58:22.476Z,5.90
2023-02-06T10:00:53.520Z,6.00
2023-02-06T10:04:00.137Z,6.00
2023-02-06T10:06:50.165Z,6.00
2023-02-06T10:09:31.749Z,6.10
2023-02-06T10:12:29.010Z,6.10
2023-02-06T10:15:07.044Z,6.20
2023-02-06T10:17:53.453Z,6.20
2023-02-06T10:20:32.729Z,6.30
2023-02-06T10:23:12.815Z,6.40
2023-02-06T10:25:49.816Z,6.50
2023-02-06T10:28:28.754Z,6.50
2023-02-06T10:31:30.397Z,6.60
2023-02-06T10:34:00.392Z,6.70
2023-02-06T10:36:36.058Z,6.80
2023-02-06T10:39:42.265Z,6.90
2023-02-06T10:42:16.646Z,7.00
2023-02-06T10:45:17.183Z,7.10
2023-02-06T10:47:57.552Z,7.20
2023-02-06T10:50:49.152Z,7.30
2023-02-06T10:53:36.462Z,7.50
2023-02-06T10:56:04.601Z,7.60
2023-02-06T10:58:45.757Z,7.70
2023-02-06T11:01:25.599Z,7.80
2023-02-06T11:03:57.614Z,7.90
2023-02-06T11:06:26.311Z,8.00
2023-02-06T11:08:53.213Z,8.10
2023-02-06T11:11:31.970Z,8.20
2023-02-06T11:14:07.234Z,8.30
2023-02-06T11:16:37.466Z,8.40
2023-02-06T11:19:44.215Z,8.60
2023-02-06T11:22:16.321Z,8.70
2023-02-06T11:25:07.721Z,8.90
2023-02-06T11:27:36.538Z,9.00
2023-02-06T11:30:27.848Z,9.20
2023-02-06T11:33:19.805Z,9.30
2023-02-06T11:35:53.400Z,9.50
2023-02-06T11:38:22.967Z,9.70
2023-02-06T11:41:17.268Z,9.80
2023-02-06T11:43:43.901Z,9.90
2023-02-06T11:46:26.733Z,10.10
2023-02-06T11:48:56.466Z,10.30
2023-02-06T11:51:26.781Z,10.40
2023-02-06T11:54:00.984Z,10.60
2023-02-06T11:56:31.072Z,10.70
2023-02-06T11:59:23.140Z,10.90
2023-02-06T12:01:50.556Z,11.00
2023-02-06T12:04:23.773Z,11.10
2023-02-06T12:07:01.220Z,11.20
2023-02-06T12:09:28.340Z,11.40
2023-02-06T12:12:25.676Z,11.50
2023-02-06T12:14:57.742Z,11.60
2023-02-06T12:17:28.564Z,11.70
2023-02-06T12:20:04.918Z,11.80
2023-02-06T12:22:36.669Z,11.90
2023-02-06T12:25:04.963Z,12.00
2023-02-06T12:27:39.382Z,12.10
2023-02-06T12:30:31.766Z,12.20
2023-02-06T12:33:33.204Z,12.30
2023-02-06T12:36:07.514Z,12.40
2023-02-06T12:38:47.312Z,12.50
2023-02-06T12:41:42.112Z,12.60
2023-02-06T12:44:37.466Z,12.70
2023-02-06T12:47:24.971Z,12.80
2023-02-06T12:50:05.279Z,12.90
2023-02-06T12:52:50.243Z,13.00
2023-02-06T12:55:19.802Z,13.10
2023-02-06T12:57:46.668Z,13.20
2023-02-06T13:00:40.312Z,13.20
2023-02-06T13:03:20.928Z,13.20
2023-02-06T13:06:08.054Z,13.30
2023-02-06T13:09:03.613Z,13.40
2023-02-06T13:11:40.474Z,13.40
2023-02-06T13:14:17.989Z,13.40
2023-02-06T13:16:58.941Z,13.40
2023-02-06T13:19:36.635Z,13.40
2023-02-06T13:22:09.392Z,13.50
2023-02-06T13:24:41.403Z,13.40
2023-02-06T13:27:07.985Z,13.50
2023-02-06T13:29:39.688Z,13.50
2023-02-06T13:32:12.518Z,13.50
2023-02-06T13:34:51.268Z,13.50
2023-02-06T13:37:33.024Z,13.60
2023-02-06T13:40:25.761Z,13.60
2023-02-06T13:43:02.486Z,13.60
2023-02-06T13:45:42.688Z,13.60
2023-02-06T13:48:28.281Z,13.60
2023-02-06T13:51:05.134Z,13.70
2023-02-06T13:53:50.038Z,13.70
2023-02-06T13:56:41.945Z,13.70
2023-02-06T13:59:20.299Z,13.70
2023-02-06T14:01:47.059Z,13.70
2023-02-06T14:04:27.217Z,13.70
2023-02-06T14:07:25.242Z,13.70
2023-02-06T14:10:31.319Z,13.70
2023-02-06T14:13:28.476Z,13.70
2023-02-06T14:16:03.719Z,13.70
2023-02-06T14:18:42.454Z,13.70
2023-02-06T14:21:27.658Z,13.70
2023-02-06T14:24:31.952Z,13.60
2023-02-06T14:27:16.523Z,13.60
2023-02-06T14:30:12.726Z,13.60
2023-02-06T14:32:44.139Z,13.60
2023-02-06T14:35:39.397Z,13.50
2023-02-06T14:38:06.195Z,13.40
2023-02-06T14:40:42.438Z,13.40
2023-02-06T14:43:16.743Z,13.40
2023-02-06T14:45:56.902Z,13.30
2023-02-06T14:48:43.121Z,13.30
2023-02-06T14:51:24.727Z,13.20
2023-02-06T14:53:54.676Z,13.20
2023-02-06T14:56:39.992Z,13.20
2023-02-06T14:59:12.624Z,13.20
2023-02-06T15:01:40.587Z,13.10
2023-02-06T15:04:19.644Z,13.10
2023-02-06T15:06:58.632Z,13.00
2023-02-06T15:09:31.448Z,13.00
2023-02-06T15:12:00.961Z,12.90
2023-02-06T15:14:33.470Z,12.80
2023-02-06T15:17:02.404Z,12.70
2023-02-06T15:19:31.429Z,12.70
2023-02-06T15:22:02.390Z,12.60
2023-02-06T15:24:35.344Z,12.50
2023-02-06T15:27:24.416Z,12.50
2023-02-06T15:29:51.830Z,12.40
2023-02-06T15:32:39.445Z,12.30
2023-02-06T15:35:33.021Z,12.20
2023-02-06T15:38:11.297Z,12.20
2023-02-06T15:40:42.112Z,12.10
2023-02-06T15:43:19.932Z,12.10
2023-02-06T15:45:47.984Z,12.00
2023-02-06T15:48:37.046Z,11.90
2023-02-06T15:51:25.298Z,11.90
2023-02-06T15:54:05.599Z,11.80
2023-02-06T15:56:35.553Z,11.70
2023-02-06T15:59:06.100Z,11.70
2023-02-06T16:01:38.277Z,11.70
2023-02-06T16:04:32.373Z,11.70
2023-02-06T16:07:02.819Z,11.60
2023-02-06T16:09:41.434Z,11.60
2023-02-06T16:12:09.112Z,11.50
2023-02-06T16:14:37.657Z,11.50
2023-02-06T16:17:10.626Z,11.40
2023-02-06T16:19:47.702Z,11.40
2023-02-06T16:22:27.375Z,11.30
2023-02-06T16:25:17.930Z,11.30
2023-02-06T16:31:04.741Z,11.20
2023-02-06T16:35:45.332Z,11.10
2023-02-06T16:36:55.580Z,11.10
2023-02-06T16:42:36.585Z,10.90
2023-02-06T16:45:24.209Z,10.80
2023-02-06T16:48:04.804Z,10.70
2023-02-06T16:53:33.685Z,10.60
2023-02-06T16:56:00.398Z,10.60
2023-02-06T16:58:30.170Z,10.50
2023-02-06T17:00:56.933Z,10.50
2023-02-06T17:03:23.858Z,10.40
2023-02-06T17:05:54.651Z,10.40
2023-02-06T17:08:23.834Z,10.30
2023-02-06T17:10:50.916Z,10.30
2023-02-06T17:13:24.718Z,10.20
2023-02-06T17:15:54.612Z,10.20
2023-02-06T17:18:22.988Z,10.10
2023-02-06T17:20:52.814Z,10.10
2023-02-06T17:23:20.239Z,10.00
2023-02-06T17:25:47.028Z,10.00
2023-02-06T17:28:17.946Z,9.90
2023-02-06T17:30:45.680Z,9.90
2023-02-06T17:33:12.666Z,9.80
2023-02-06T17:35:39.424Z,9.80
2023-02-06T17:38:08.054Z,9.70
2023-02-06T17:40:37.030Z,9.70
2023-02-06T17:43:04.791Z,9.70
2023-02-06T17:45:32.040Z,9.60
2023-02-06T17:47:58.964Z,9.60
2023-02-06T17:50:29.910Z,9.50
2023-02-06T17:52:58.809Z,9.50
2023-02-06T17:55:27.197Z,9.50
2023-02-06T17:57:54.457Z,9.40
2023-02-06T18:00:29.324Z,9.40
2023-02-06T18:02:58.380Z,9.40
2023-02-06T18:05:25.337Z,9.30
2023-02-06T18:07:52.382Z,9.30
2023-02-06T18:10:21.834Z,9.20
2023-02-06T18:12:48.988Z,9.20
2023-02-06T18:15:16.550Z,9.20
2023-02-06T18:17:43.366Z,9.20
2023-02-06T18:20:11.688Z,9.10
2023-02-06T18:22:41.320Z,9.10
2023-02-06T18:25:16.139Z,9.10
2023-02-06T18:27:48.055Z,9.00
2023-02-06T18:30:15.542Z,8.90
2023-02-06T18:32:42.330Z,9.00
2023-02-06T18:35:09.415Z,8.90
2023-02-06T18:37:36.463Z,8.80
2023-02-06T18:40:04.204Z,8.80
2023-02-06T18:42:49.641Z,8.70
2023-02-06T18:45:16.968Z,8.70
2023-02-06T18:47:47.661Z,8.70
2023-02-06T18:50:20.603Z,8.70
2023-02-06T18:52:48.475Z,8.60
2023-02-06T18:55:16.258Z,8.60
2023-02-06T18:57:42.984Z,8.50
2023-02-06T19:00:11.860Z,8.50
2023-02-06T19:02:38.609Z,8.40
2023-02-06T19:05:05.417Z,8.40
2023-02-06T19:07:32.276Z,8.30
2023-02-06T19:10:00.638Z,8.30
2023-02-06T19:12:28.956Z,8.20
2023-02-06T19:14:56.429Z,8.20
2023-02-06T19:17:24.489Z,8.20
2023-02-06T19:19:51.630Z,8.10
2023-02-06T19:22:18.365Z,8.10
2023-02-06T19:24:45.134Z,8.00
2023-02-06T19:27:13.262Z,8.00
2023-02-06T19:29:40.140Z,7.90
2023-02-06T19:32:08.673Z,7.90
2023-02-06T19:34:38.151Z,7.80
2023-02-06T19:37:06.357Z,7.80
2023-02-06T19:39:34.344Z,7.70
2023-02-06T19:42:02.289Z,7.70
2023-02-06T19:44:29.173Z,7.70
2023-02-06T19:46:56.731Z,7.60
2023-02-06T19:49:24.530Z,7.60
2023-02-06T19:51:51.359Z,7.50
2023-02-06T19:54:18.655Z,7.50
2023-02-06T19:56:48.998Z,7.50
2023-02-06T19:59:25.426Z,7.40
2023-02-06T20:02:00.927Z,7.30
2023-02-06T20:04:34.611Z,7.30
2023-02-06T20:07:02.186Z,7.30
2023-02-06T20:09:29.773Z,7.20
2023-02-06T20:11:56.987Z,7.20
2023-02-06T20:14:25.459Z,7.20
2023-02-06T20:16:52.310Z,7.20
2023-02-06T20:19:22.541Z,7.20
2023-02-06T20:21:53.579Z,7.20
2023-02-06T20:24:23.569Z,7.10
2023-02-06T20:26:55.739Z,7.10
2023-02-06T20:29:31.715Z,7.10
2023-02-06T20:31:59.599Z,7.00
2023-02-06T20:34:27.236Z,7.00
2023-02-06T20:36:54.818Z,6.90
2023-02-06T20:39:22.012Z,6.90
2023-02-06T20:41:50.273Z,6.90
2023-02-06T20:44:18.016Z,6.90
2023-02-06T20:46:44.972Z,6.80
2023-02-06T20:49:21.157Z,6.80
2023-02-06T20:51:49.381Z,6.80
2023-02-06T20:54:16.531Z,6.80
2023-02-06T20:56:43.302Z,6.70
2023-02-06T20:59:13.994Z,6.70
2023-02-06T21:01:41.840Z,6.70
2023-02-06T21:04:11.284Z,6.70
2023-02-06T21:06:39.128Z,6.70
2023-02-06T21:09:07.623Z,6.70
2023-02-06T21:11:42.228Z,6.60
2023-02-06T21:14:08.938Z,6.60
2023-02-06T21:16:37.951Z,6.50
2023-02-06T21:19:09.436Z,6.50
2023-02-06T21:21:37.220Z,6.40
2023-02-06T21:24:04.622Z,6.50
2023-02-06T21:26:32.609Z,6.40
2023-02-06T21:28:59.882Z,6.40
2023-02-06T21:31:36.128Z,6.40
2023-02-06T21:34:09.097Z,6.40
2023-02-06T21:36:37.693Z,6.30
2023-02-06T21:39:04.849Z,6.30
2023-02-06T21:41:32.756Z,6.30
2023-02-06T21:43:59.751Z,6.30
2023-02-06T21:46:26.609Z,6.20
2023-02-06T21:48:54.029Z,6.20
2023-02-06T21:51:21.625Z,6.20
2023-02-06T21:53:48.523Z,6.20
2023-02-06T21:56:20.832Z,6.20
2023-02-06T21:58:48.321Z,6.20
2023-02-06T22:01:17.025Z,6.20
2023-02-06T22:03:45.550Z,6.10
2023-02-06T22:06:13.683Z,6.10
2023-02-06T22:08:43.438Z,6.10
2023-02-06T22:11:12.727Z,6.10
2023-02-06T22:13:39.710Z,6.10
2023-02-06T22:16:08.077Z,6.10
2023-02-06T22:18:35.043Z,6.00
2023-02-06T22:21:14.002Z,6.00
2023-02-06T22:23:41.356Z,6.00
2023-02-06T22:26:10.185Z,6.00
2023-02-06T22:28:37.267Z,6.00
2023-02-06T22:31:14.067Z,5.90
2023-02-06T22:33:41.470Z,5.90
2023-02-06T22:36:11.326Z,5.90
2023-02-06T22:38:39.159Z,5.90
2023-02-06T22:41:10.299Z,5.90
2023-02-06T22:43:38.614Z,5.80
2023-02-06T22:46:07.000Z,5.80
2023-02-06T22:48:34.271Z,5.80
2023-02-06T22:51:09.693Z,5.70
2023-02-06T22:53:42.898Z,5.70
2023-02-06T22:56:29.502Z,5.70
2023-02-06T22:59:24.533Z,5.70
2023-02-06T23:01:54.869Z,5.70
2023-02-06T23:04:30.330Z,5.70
2023-02-06T23:06:57.631Z,5.70
2023-02-06T23:09:27.273Z,5.60
2023-02-06T23:11:54.559Z,5.60
2023-02-06T23:14:21.652Z,5.60
2023-02-06T23:16:48.539Z,5.60
2023-02-06T23:19:17.300Z,5.60
2023-02-06T23:21:46.299Z,5.60
2023-02-06T23:24:15.934Z,5.60
2023-02-06T23:26:45.084Z,5.50
2023-02-06T23:29:15.941Z,5.50
2023-02-06T23:31:43.523Z,5.50
2023-02-06T23:34:10.906Z,5.50
2023-02-06T23:36:43.292Z,5.50
2023-02-06T23:39:11.854Z,5.50
2023-02-06T23:41:41.189Z,5.40
2023-02-06T23:44:17.050Z,5.40
2023-02-06T23:46:43.732Z,5.40
2023-02-06T23:49:10.694Z,5.40
2023-02-06T23:51:40.790Z,5.40
2023-02-06T23:54:08.537Z,5.40
2023-02-06T23:56:35.847Z,5.30
2023-02-06T23:59:03.879Z,5.30
